Time;durP1;ratioP1;P1;durP2;ratioP2;P2;SDS_P1;SDS_P2;PMS_P1;PMS_P2;Temp;Humidity;BMP_temperature;BMP_pressure;BME280_temperature;BME280_humidity;BME280_pressure;Samples;Min_cycle;Max_cycle;Signal;HPM_P1;HPM_P2
2023/08/08 00:01:23;;;;;;;7.82;3.63;;;12.70;99.90;;;;;;5054640;28;20087;-76
2023/08/08 00:03:49;;;;;;;13.63;3.55;;;12.70;99.90;;;;;;5055354;28;20052;-77
2023/08/08 00:06:15;;;;;;;11.25;3.85;;;12.70;99.90;;;;;;5055193;28;20132;-78
2023/08/08 00:08:41;;;;;;;8.70;4.10;;;12.70;99.90;;;;;;5055062;28;20041;-77
2023/08/08 00:11:07;;;;;;;10.98;4.10;;;12.80;99.90;;;;;;5053388;28;20048;-77
2023/08/08 00:13:32;;;;;;;11.55;4.32;;;12.80;99.90;;;;;;5055045;28;20041;-78
2023/08/08 00:15:58;;;;;;;14.05;4.68;;;12.80;99.90;;;;;;5054078;28;20071;-80
2023/08/08 00:18:24;;;;;;;12.63;4.32;;;12.80;99.90;;;;;;5054845;28;20052;-80
2023/08/08 00:20:50;;;;;;;11.73;4.30;;;12.80;99.90;;;;;;5053549;28;20491;-75
2023/08/08 00:23:15;;;;;;;10.25;4.60;;;12.80;99.90;;;;;;5053332;28;20160;-77
2023/08/08 00:25:41;;;;;;;8.57;4.20;;;12.90;99.90;;;;;;5053725;28;20136;-79
2023/08/08 00:28:07;;;;;;;9.90;4.30;;;12.90;99.90;;;;;;5053042;28;20063;-76
2023/08/08 00:30:33;;;;;;;12.02;4.63;;;12.90;99.90;;;;;;5053147;28;20507;-77
2023/08/08 00:32:58;;;;;;;12.73;5.03;;;12.90;99.90;;;;;;5053950;28;20041;-75
2023/08/08 00:35:24;;;;;;;8.73;4.53;;;12.90;99.90;;;;;;5052950;28;20051;-77
2023/08/08 00:37:50;;;;;;;10.93;4.57;;;12.90;99.90;;;;;;5053350;28;20045;-77
2023/08/08 00:40:16;;;;;;;9.40;4.38;;;12.90;99.90;;;;;;5053904;28;20442;-76
2023/08/08 00:42:41;;;;;;;14.98;5.53;;;13.00;99.90;;;;;;5053555;28;20067;-79
2023/08/08 00:45:07;;;;;;;9.20;4.68;;;13.00;99.90;;;;;;5053594;28;20060;-79
2023/08/08 00:47:34;;;;;;;9.87;4.43;;;13.00;99.90;;;;;;5036274;28;20041;-79
2023/08/08 00:50:04;;;;;;;11.00;5.00;;;12.90;99.90;;;;;;5053836;28;20397;-75
2023/08/08 00:52:30;;;;;;;11.75;4.78;;;13.00;99.90;;;;;;5053690;28;20481;-78
2023/08/08 00:54:57;;;;;;;14.15;4.43;;;13.00;99.90;;;;;;5052678;28;20049;-80
2023/08/08 00:57:22;;;;;;;10.82;4.40;;;13.00;99.90;;;;;;5053898;28;20045;-77
2023/08/08 00:59:48;;;;;;;10.95;4.72;;;13.00;99.90;;;;;;5052336;28;20473;-77
2023/08/08 01:02:14;;;;;;;11.13;4.55;;;13.00;99.90;;;;;;5052395;28;20048;-79
2023/08/08 01:04:40;;;;;;;12.15;4.68;;;13.10;99.90;;;;;;5052662;28;20084;-77
2023/08/08 01:07:12;;;;;;;11.80;5.00;;;13.00;99.90;;;;;;5054458;28;20076;-77
2023/08/08 01:09:47;;;;;;;12.02;4.93;;;13.00;99.90;;;;;;5052644;28;20053;-79
2023/08/08 01:12:15;;;;;;;11.98;4.80;;;13.00;99.90;;;;;;5053743;28;20085;-77
2023/08/08 01:14:43;;;;;;;10.15;4.97;;;13.10;99.90;;;;;;5053651;28;20556;-79
2023/08/08 01:17:11;;;;;;;14.90;4.85;;;13.10;99.90;;;;;;5052383;28;20127;-77
2023/08/08 01:19:37;;;;;;;13.30;4.88;;;13.10;99.90;;;;;;5053651;28;20052;-76
2023/08/08 01:22:06;;;;;;;14.30;4.88;;;13.10;99.90;;;;;;5052675;28;20059;-77
2023/08/08 01:24:36;;;;;;;11.60;4.72;;;13.10;99.90;;;;;;5036488;28;20440;-75
2023/08/08 01:27:03;;;;;;;15.38;5.00;;;13.20;99.90;;;;;;5052706;28;20079;-79
2023/08/08 01:29:29;;;;;;;10.55;4.70;;;13.20;99.90;;;;;;5054221;28;20045;-78
2023/08/08 01:31:55;;;;;;;11.95;4.97;;;13.20;99.90;;;;;;5052834;28;20047;-78
2023/08/08 01:34:22;;;;;;;15.27;5.53;;;13.20;99.90;;;;;;5053640;28;20485;-77
2023/08/08 01:37:14;;;;;;;11.57;4.82;;;13.20;99.90;;;;;;5053988;28;20049;-76
2023/08/08 01:39:42;;;;;;;16.38;5.22;;;13.30;99.90;;;;;;5053367;28;20049;-76
2023/08/08 01:42:08;;;;;;;13.35;4.95;;;13.30;99.90;;;;;;5068995;28;20053;-73
2023/08/08 01:44:35;;;;;;;14.10;5.43;;;13.30;99.90;;;;;;5052492;28;20092;-75
2023/08/08 01:47:01;;;;;;;16.00;4.97;;;13.40;99.90;;;;;;5052993;28;20053;-78
2023/08/08 01:49:26;;;;;;;13.70;4.65;;;13.40;99.90;;;;;;5055574;28;20110;-78
2023/08/08 01:51:52;;;;;;;19.35;4.82;;;13.40;99.90;;;;;;5056594;28;20052;-78
2023/08/08 01:54:19;;;;;;;12.63;4.85;;;13.40;99.90;;;;;;5039722;28;20041;-78
2023/08/08 01:56:45;;;;;;;15.55;5.20;;;13.50;99.90;;;;;;5057186;28;20105;-78
2023/08/08 01:59:10;;;;;;;11.82;5.35;;;13.50;99.90;;;;;;5057191;28;20532;-75
2023/08/08 02:01:36;;;;;;;13.65;4.60;;;13.50;99.90;;;;;;5039920;28;20055;-76
2023/08/08 02:04:02;;;;;;;16.20;5.47;;;13.50;99.90;;;;;;5057859;28;20052;-77
2023/08/08 02:06:28;;;;;;;15.73;5.47;;;13.60;99.90;;;;;;5063945;28;20523;-79
2023/08/08 02:08:53;;;;;;;18.48;4.85;;;13.60;99.90;;;;;;5058005;28;20091;-78
2023/08/08 02:11:21;;;;;;;19.25;5.80;;;13.60;99.90;;;;;;5057801;28;20053;-78
2023/08/08 02:13:47;;;;;;;18.55;5.63;;;13.60;99.90;;;;;;5057364;28;20099;-78
2023/08/08 02:16:13;;;;;;;16.30;5.50;;;13.60;99.90;;;;;;5072534;28;20044;-75
2023/08/08 02:18:40;;;;;;;14.65;5.15;;;13.60;99.90;;;;;;5057025;28;20048;-76
2023/08/08 02:21:07;;;;;;;13.75;5.45;;;13.70;99.90;;;;;;5055710;28;20052;-80
2023/08/08 02:23:33;;;;;;;14.07;5.32;;;13.70;99.90;;;;;;5057390;28;20045;-79
2023/08/08 02:25:59;;;;;;;15.27;5.60;;;13.70;99.90;;;;;;5056752;28;20059;-76
2023/08/08 02:28:25;;;;;;;17.23;5.85;;;13.70;99.90;;;;;;5057292;28;20045;-79
2023/08/08 02:30:50;;;;;;;18.88;5.72;;;13.70;99.90;;;;;;5058996;28;20118;-79
2023/08/08 02:33:16;;;;;;;16.15;5.80;;;13.70;99.90;;;;;;5074037;28;20049;-78
2023/08/08 02:35:42;;;;;;;19.13;5.53;;;13.70;99.90;;;;;;5056839;28;20077;-81
2023/08/08 02:38:08;;;;;;;19.92;6.15;;;13.70;99.90;;;;;;5058041;28;20102;-79
2023/08/08 02:40:33;;;;;;;16.40;6.00;;;13.70;99.90;;;;;;5061231;28;20477;-77
2023/08/08 02:42:59;;;;;;;19.92;5.85;;;13.70;99.90;;;;;;5062143;28;20366;-77
2023/08/08 02:45:25;;;;;;;15.23;6.07;;;13.70;99.90;;;;;;5060851;28;20049;-79
2023/08/08 02:47:50;;;;;;;19.92;6.55;;;13.70;99.90;;;;;;5061293;28;20413;-76
2023/08/08 02:50:17;;;;;;;17.05;6.40;;;13.70;99.90;;;;;;5058887;28;20116;-78
2023/08/08 02:52:43;;;;;;;19.40;6.25;;;13.70;99.90;;;;;;5056978;28;20068;-78
2023/08/08 02:55:09;;;;;;;16.45;5.47;;;13.60;99.90;;;;;;5057401;28;20044;-76
2023/08/08 02:57:34;;;;;;;17.00;6.70;;;13.60;99.90;;;;;;5055506;28;20388;-76
2023/08/08 03:00:00;;;;;;;15.63;5.97;;;13.50;99.90;;;;;;5053410;28;20041;-80
2023/08/08 03:02:26;;;;;;;21.52;6.65;;;13.50;99.90;;;;;;5056330;28;20048;-78
2023/08/08 03:04:51;;;;;;;18.42;6.28;;;13.40;99.90;;;;;;5055693;28;20447;-78
2023/08/08 03:07:17;;;;;;;19.55;5.88;;;13.40;99.90;;;;;;5037947;28;20155;-77
2023/08/08 03:09:43;;;;;;;18.05;5.38;;;13.30;99.90;;;;;;5055704;28;20052;-77
2023/08/08 03:12:09;;;;;;;17.10;5.55;;;13.40;99.90;;;;;;5055563;28;20041;-77
2023/08/08 03:14:34;;;;;;;17.85;5.18;;;13.30;99.90;;;;;;5054625;28;20048;-76
2023/08/08 03:17:00;;;;;;;13.98;5.03;;;13.30;99.90;;;;;;5056095;28;20057;-75
2023/08/08 03:19:26;;;;;;;16.90;5.50;;;13.30;99.90;;;;;;5055416;28;20449;-79
2023/08/08 03:21:52;;;;;;;15.05;4.43;;;13.40;99.90;;;;;;5054346;28;20135;-79
2023/08/08 03:24:18;;;;;;;16.20;5.20;;;13.30;99.90;;;;;;5055245;28;20144;-78
2023/08/08 03:26:43;;;;;;;16.77;4.90;;;13.30;99.90;;;;;;5054827;28;20083;-78
2023/08/08 03:29:10;;;;;;;15.25;4.63;;;13.30;99.90;;;;;;5055619;28;20056;-76
2023/08/08 03:31:36;;;;;;;19.80;4.53;;;13.30;99.90;;;;;;5054920;28;20370;-76
2023/08/08 03:34:02;;;;;;;13.70;4.60;;;13.20;99.90;;;;;;5054050;28;20092;-77
2023/08/08 03:36:28;;;;;;;16.13;4.55;;;13.20;99.90;;;;;;5055329;28;20046;-80
2023/08/08 03:38:54;;;;;;;16.38;4.15;;;13.20;99.90;;;;;;5055424;28;20496;-77
2023/08/08 03:41:20;;;;;;;15.85;4.20;;;13.10;99.90;;;;;;5053387;28;20048;-78
2023/08/08 03:43:46;;;;;;;17.27;4.50;;;13.20;99.90;;;;;;5037719;28;20048;-77
2023/08/08 03:46:11;;;;;;;19.20;5.45;;;13.10;99.90;;;;;;5053822;28;20146;-77
2023/08/08 03:48:38;;;;;;;15.38;4.53;;;13.20;99.90;;;;;;5055430;28;20138;-77
2023/08/08 03:51:04;;;;;;;16.33;3.95;;;13.10;99.90;;;;;;5053855;28;20053;-78
2023/08/08 03:53:29;;;;;;;12.93;4.60;;;13.20;99.90;;;;;;5037043;28;20067;-79
2023/08/08 03:55:55;;;;;;;12.23;4.57;;;13.20;99.90;;;;;;5054857;28;20052;-80
2023/08/08 03:58:21;;;;;;;19.48;4.72;;;13.10;99.90;;;;;;5054134;28;20056;-76
2023/08/08 04:00:47;;;;;;;14.05;3.83;;;13.10;99.90;;;;;;5037799;28;20136;-78
2023/08/08 04:03:14;;;;;;;14.23;4.10;;;13.10;99.90;;;;;;5053804;28;20055;-80
2023/08/08 04:05:41;;;;;;;13.18;3.95;;;13.10;99.90;;;;;;5055714;28;20120;-78
2023/08/08 04:08:07;;;;;;;11.40;3.33;;;13.10;99.90;;;;;;5057550;28;20129;-78
2023/08/08 04:10:33;;;;;;;13.50;3.60;;;13.10;99.90;;;;;;5058280;28;20085;-77
2023/08/08 04:12:58;;;;;;;13.70;3.35;;;13.00;99.90;;;;;;5058468;28;20041;-78
2023/08/08 04:15:24;;;;;;;15.15;3.30;;;13.00;99.90;;;;;;5056457;28;20052;-78
2023/08/08 04:17:50;;;;;;;13.50;3.20;;;12.90;99.90;;;;;;5057854;28;20056;-79
2023/08/08 04:20:16;;;;;;;13.07;3.15;;;12.90;99.90;;;;;;5040252;28;20076;-77
2023/08/08 04:22:41;;;;;;;13.25;3.00;;;12.90;99.90;;;;;;5058984;28;20044;-77
2023/08/08 04:25:07;;;;;;;18.83;3.80;;;12.90;99.90;;;;;;5060816;28;20055;-79
2023/08/08 04:27:33;;;;;;;13.07;2.87;;;12.80;99.90;;;;;;5063511;28;20443;-77
2023/08/08 04:29:59;;;;;;;11.48;2.55;;;12.80;99.90;;;;;;5062182;28;20041;-77
2023/08/08 04:32:24;;;;;;;8.63;2.85;;;12.80;99.90;;;;;;5058616;28;20166;-80
2023/08/08 04:34:50;;;;;;;16.27;2.40;;;12.80;99.90;;;;;;5055501;28;20484;-78
2023/08/08 04:37:16;;;;;;;13.30;2.15;;;12.80;99.90;;;;;;5053098;28;20127;-79
2023/08/08 04:39:42;;;;;;;13.55;2.63;;;12.80;99.90;;;;;;5054302;28;20060;-81
2023/08/08 04:42:07;;;;;;;13.68;2.90;;;12.90;99.90;;;;;;5053883;28;20068;-79
2023/08/08 04:44:33;;;;;;;9.63;2.38;;;12.90;99.90;;;;;;5054803;28;20056;-77
2023/08/08 04:46:59;;;;;;;19.30;2.67;;;13.00;99.90;;;;;;5053000;28;20378;-80
2023/08/08 04:49:25;;;;;;;14.93;2.17;;;13.10;99.90;;;;;;5053885;28;20044;-77
2023/08/08 04:51:50;;;;;;;10.90;2.17;;;13.10;99.90;;;;;;5070442;28;20052;-82
2023/08/08 04:54:16;;;;;;;8.95;2.80;;;13.20;99.90;;;;;;5052758;28;20076;-79
2023/08/08 04:56:42;;;;;;;14.18;2.17;;;13.20;99.90;;;;;;5052550;28;20045;-79
2023/08/08 04:59:07;;;;;;;9.00;2.63;;;13.20;99.90;;;;;;5053256;28;20053;-78
2023/08/08 05:01:33;;;;;;;14.70;2.10;;;13.30;99.90;;;;;;5053703;28;20041;-78
2023/08/08 05:03:59;;;;;;;8.43;2.00;;;13.50;99.90;;;;;;5054048;28;20057;-79
2023/08/08 05:06:25;;;;;;;11.57;2.47;;;13.60;99.90;;;;;;5053571;28;20076;-78
2023/08/08 05:08:52;;;;;;;11.98;1.92;;;13.70;99.90;;;;;;5052639;28;20095;-79
2023/08/08 05:11:17;;;;;;;;;;;13.70;99.90;;;;;;5053822;28;20497;-75
2023/08/08 05:13:43;;;;;;;10.47;2.20;;;13.80;99.90;;;;;;5053755;28;19928;-75
2023/08/08 05:16:09;;;;;;;10.60;1.70;;;13.90;99.90;;;;;;5052498;28;20056;-76
2023/08/08 05:18:35;;;;;;;8.00;1.95;;;13.90;99.90;;;;;;5052302;28;20392;-78
2023/08/08 05:21:00;;;;;;;12.55;2.03;;;13.80;99.90;;;;;;5053551;28;20159;-76
2023/08/08 05:23:26;;;;;;;10.75;1.60;;;13.90;99.90;;;;;;5036351;28;20041;-77
2023/08/08 05:25:52;;;;;;;8.10;1.60;;;13.90;99.90;;;;;;5057106;28;20131;-75
2023/08/08 05:28:17;;;;;;;9.23;1.63;;;13.90;99.90;;;;;;5057383;28;20051;-76
2023/08/08 05:30:43;;;;;;;6.68;1.40;;;14.00;99.90;;;;;;5056931;28;20048;-77
2023/08/08 05:33:09;;;;;;;6.38;1.77;;;14.10;99.90;;;;;;5057135;28;20095;-76
2023/08/08 05:35:35;;;;;;;8.27;1.42;;;14.10;99.90;;;;;;5055746;28;20505;-78
2023/08/08 05:38:00;;;;;;;10.23;1.63;;;14.10;99.90;;;;;;5057454;28;20517;-76
2023/08/08 05:40:26;;;;;;;13.13;1.27;;;14.20;99.90;;;;;;5056388;28;20045;-77
2023/08/08 05:42:52;;;;;;;6.88;1.20;;;14.20;99.90;;;;;;5055277;28;20111;-78
2023/08/08 05:45:18;;;;;;;7.18;1.30;;;14.20;99.90;;;;;;5056246;28;20053;-76
2023/08/08 05:47:43;;;;;;;8.73;1.73;;;14.30;99.90;;;;;;5056807;28;20095;-76
2023/08/08 05:50:09;;;;;;;12.73;1.60;;;14.20;99.90;;;;;;5057485;28;20076;-77
2023/08/08 05:52:35;;;;;;;10.40;1.15;;;14.30;99.90;;;;;;5056143;28;20074;-76
2023/08/08 05:55:01;;;;;;;10.32;1.48;;;14.20;99.90;;;;;;5056744;28;20048;-78
2023/08/08 05:57:27;;;;;;;7.07;1.15;;;14.20;99.90;;;;;;5055433;28;20041;-76
2023/08/08 05:59:52;;;;;;;12.32;1.70;;;14.10;99.90;;;;;;5055979;28;20052;-75
2023/08/08 06:02:18;;;;;;;12.15;2.50;;;14.00;99.90;;;;;;5055762;28;20091;-78
2023/08/08 06:04:45;;;;;;;11.80;1.58;;;14.00;99.90;;;;;;5056788;28;20477;-75
2023/08/08 06:07:11;;;;;;;8.75;1.13;;;13.90;99.90;;;;;;5039041;28;20053;-75
2023/08/08 06:09:39;;;;;;;9.27;1.15;;;13.90;99.90;;;;;;5056191;28;20056;-76
2023/08/08 06:12:05;;;;;;;11.10;1.30;;;13.90;99.90;;;;;;5056241;28;20040;-75
2023/08/08 06:14:31;;;;;;;8.00;0.80;;;14.00;99.90;;;;;;5056809;28;20051;-79
2023/08/08 06:16:57;;;;;;;8.93;1.20;;;14.20;99.90;;;;;;5055692;28;20123;-77
2023/08/08 06:19:23;;;;;;;6.38;0.93;;;14.30;99.90;;;;;;5055760;28;20049;-79
2023/08/08 06:21:48;;;;;;;10.18;1.20;;;14.30;99.90;;;;;;5038652;28;20101;-78
2023/08/08 06:24:14;;;;;;;4.68;0.90;;;14.30;99.90;;;;;;5056319;28;20041;-78
2023/08/08 06:26:40;;;;;;;11.50;1.27;;;14.30;99.90;;;;;;5058014;28;20171;-75
2023/08/08 06:29:06;;;;;;;10.52;1.35;;;14.30;99.90;;;;;;5060004;28;20037;-78
2023/08/08 06:31:31;;;;;;;10.70;1.20;;;14.30;99.90;;;;;;5060082;28;20358;-76
2023/08/08 06:33:57;;;;;;;9.20;1.00;;;14.50;99.90;;;;;;5056103;28;20076;-75
2023/08/08 06:36:23;;;;;;;6.82;0.88;;;14.50;99.90;;;;;;5054222;28;20045;-74
2023/08/08 06:38:48;;;;;;;8.15;0.98;;;14.60;99.90;;;;;;5056776;28;20052;-73
2023/08/08 06:41:14;;;;;;;9.68;1.05;;;14.70;99.90;;;;;;5055480;28;20416;-75
2023/08/08 06:43:40;;;;;;;11.65;1.30;;;14.80;99.90;;;;;;5056359;28;20049;-78
2023/08/08 06:46:06;;;;;;;10.27;1.15;;;14.90;99.90;;;;;;5056277;28;20132;-79
2023/08/08 06:48:31;;;;;;;9.27;0.90;;;15.00;99.90;;;;;;5056083;28;20053;-79
2023/08/08 06:50:57;;;;;;;7.47;1.20;;;15.10;99.90;;;;;;5055387;28;20473;-76
2023/08/08 06:53:23;;;;;;;11.43;0.85;;;15.20;99.90;;;;;;5055455;28;20051;-79
2023/08/08 06:55:49;;;;;;;10.43;1.02;;;15.30;99.90;;;;;;5055483;28;20132;-75
2023/08/08 06:58:14;;;;;;;9.20;1.10;;;15.40;99.90;;;;;;5055277;28;20366;-76
2023/08/08 07:00:40;;;;;;;12.82;1.27;;;15.40;99.90;;;;;;5054755;28;20087;-76
2023/08/08 07:03:06;;;;;;;8.15;1.10;;;15.50;99.90;;;;;;5037581;28;20049;-75
2023/08/08 07:05:32;;;;;;;6.35;0.80;;;15.50;99.90;;;;;;5054330;28;20095;-78
2023/08/08 07:07:58;;;;;;;8.40;1.02;;;15.60;99.90;;;;;;5037845;28;20366;-77
2023/08/08 07:10:23;;;;;;;9.00;1.48;;;15.70;99.90;;;;;;5055714;28;20045;-77
2023/08/08 07:12:49;;;;;;;7.28;1.13;;;15.80;99.90;;;;;;5055384;28;20056;-78
2023/08/08 07:15:15;;;;;;;9.05;0.80;;;15.80;99.90;;;;;;5055007;28;20123;-75
2023/08/08 07:17:41;;;;;;;9.90;0.85;;;15.90;99.90;;;;;;5054200;28;20066;-76
2023/08/08 07:20:08;;;;;;;6.55;0.70;;;16.00;99.90;;;;;;5036994;28;20132;-76
2023/08/08 07:22:33;;;;;;;;;;;16.00;99.90;;;;;;5055389;28;20052;-76
2023/08/08 07:24:59;;;;;;;6.53;1.13;;;16.10;99.90;;;;;;5055302;28;19927;-78
2023/08/08 07:27:26;;;;;;;7.22;0.68;;;16.10;99.90;;;;;;5054911;28;20091;-77
2023/08/08 07:29:52;;;;;;;8.77;0.88;;;16.20;99.90;;;;;;5055118;28;20111;-75
2023/08/08 07:32:18;;;;;;;11.02;0.52;;;16.20;99.90;;;;;;5055553;28;20506;-75
2023/08/08 07:34:44;;;;;;;4.47;0.60;;;16.30;99.90;;;;;;5055324;28;20084;-78
2023/08/08 07:37:09;;;;;;;7.78;0.68;;;16.40;99.90;;;;;;5054065;28;20132;-76
2023/08/08 07:39:35;;;;;;;12.82;0.88;;;16.40;99.90;;;;;;5054389;28;20052;-75
2023/08/08 07:42:01;;;;;;;7.82;0.93;;;16.60;99.90;;;;;;5053275;28;20106;-74
2023/08/08 07:44:27;;;;;;;4.00;0.68;;;16.70;99.90;;;;;;5053763;28;20040;-77
2023/08/08 07:46:52;;;;;;;9.52;0.70;;;16.80;99.90;;;;;;5054438;28;20041;-79
2023/08/08 07:49:18;;;;;;;8.70;0.80;;;17.00;99.90;;;;;;5038074;28;20527;-77
2023/08/08 07:51:44;;;;;;;7.22;0.70;;;17.10;99.90;;;;;;5053643;28;20041;-76
2023/08/08 07:54:10;;;;;;;9.02;0.80;;;17.20;99.90;;;;;;5054631;28;20129;-80
2023/08/08 07:56:38;;;;;;;4.18;0.73;;;17.40;99.90;;;;;;5054020;28;20071;-73
2023/08/08 07:59:03;;;;;;;6.43;0.60;;;17.70;99.90;;;;;;5055326;28;20084;-78
2023/08/08 08:01:30;;;;;;;9.27;0.70;;;17.90;99.90;;;;;;5037128;28;20055;-74
2023/08/08 08:03:56;;;;;;;5.57;0.60;;;18.00;99.90;;;;;;5036915;28;20064;-76
2023/08/08 08:06:21;;;;;;;6.53;0.70;;;18.10;99.90;;;;;;5036911;28;20303;-81
2023/08/08 08:08:47;;;;;;;5.35;0.50;;;18.10;99.90;;;;;;5053863;28;20060;-75
2023/08/08 08:11:15;;;;;;;7.63;0.63;;;18.10;99.90;;;;;;5054428;28;20550;-78
2023/08/08 08:13:40;;;;;;;6.03;0.77;;;18.20;99.90;;;;;;5054827;28;20045;-76
2023/08/08 08:16:06;;;;;;;6.55;0.80;;;18.20;99.90;;;;;;5054488;28;20118;-75
2023/08/08 08:18:33;;;;;;;7.80;1.08;;;18.20;99.90;;;;;;5053519;28;20045;-76
2023/08/08 08:20:59;;;;;;;6.15;0.63;;;18.20;99.90;;;;;;5054297;28;20048;-76
2023/08/08 08:23:25;;;;;;;3.53;0.60;;;18.20;99.90;;;;;;5054501;28;20120;-74
2023/08/08 08:25:51;;;;;;;10.37;0.70;;;18.20;99.90;;;;;;5055380;28;20080;-76
2023/08/08 08:28:17;;;;;;;7.00;0.60;;;18.30;99.90;;;;;;5052969;28;20068;-78
2023/08/08 08:30:43;;;;;;;3.92;0.43;;;18.30;99.90;;;;;;5054083;28;20103;-75
2023/08/08 08:33:09;;;;;;;4.93;0.60;;;18.20;99.90;;;;;;5053546;28;20045;-75
2023/08/08 08:35:35;;;;;;;5.45;0.55;;;18.30;99.90;;;;;;5054658;28;20049;-75
2023/08/08 08:38:01;;;;;;;9.80;0.73;;;18.50;99.90;;;;;;5055719;28;20044;-77
2023/08/08 08:40:29;;;;;;;6.57;0.60;;;18.50;99.90;;;;;;5038930;28;20122;-75
2023/08/08 08:42:56;;;;;;;2.58;0.50;;;18.50;99.90;;;;;;5056184;28;20052;-78
2023/08/08 08:45:23;;;;;;;9.15;0.77;;;18.50;99.90;;;;;;5053181;28;20509;-77
2023/08/08 08:47:50;;;;;;;;;;;18.70;99.90;;;;;;5055257;28;20045;-78
2023/08/08 08:50:18;;;;;;;10.27;0.70;;;18.70;99.90;;;;;;5086807;28;20319;-77
2023/08/08 08:52:44;;;;;;;5.13;0.60;;;18.70;99.90;;;;;;5054447;28;20477;-77
2023/08/08 08:55:10;;;;;;;5.97;0.80;;;18.80;99.90;;;;;;5053810;28;20127;-73
2023/08/08 08:57:37;;;;;;;3.35;0.50;;;18.90;99.90;;;;;;5052151;28;20492;-74
2023/08/08 09:00:03;;;;;;;;;;;19.00;99.90;;;;;;5052450;28;20489;-74
2023/08/08 09:02:29;;;;;;;6.68;0.55;;;19.00;99.90;;;;;;5053823;28;19920;-74
2023/08/08 09:04:56;;;;;;;5.97;0.60;;;19.00;99.90;;;;;;5053337;28;20063;-75
2023/08/08 09:07:26;;;;;;;4.38;0.70;;;19.00;99.90;;;;;;5054393;28;20091;-74
2023/08/08 09:09:52;;;;;;;9.07;0.60;;;19.00;99.90;;;;;;5054803;28;20045;-75
2023/08/08 09:12:18;;;;;;;7.70;0.53;;;18.90;99.90;;;;;;5055371;28;20064;-73
2023/08/08 09:14:44;;;;;;;5.78;0.80;;;18.90;99.90;;;;;;5056221;28;20041;-74
2023/08/08 09:17:12;;;;;;;3.77;0.60;;;18.80;99.90;;;;;;5038276;28;20045;-74
2023/08/08 09:19:38;;;;;;;9.43;0.65;;;18.80;99.90;;;;;;5055823;28;20369;-75
2023/08/08 09:22:04;;;;;;;4.72;0.47;;;18.80;99.90;;;;;;5054408;28;20367;-72
2023/08/08 09:24:30;;;;;;;6.87;0.70;;;18.90;99.90;;;;;;5053664;28;20067;-73
2023/08/08 09:26:56;;;;;;;3.23;0.60;;;19.00;99.90;;;;;;5053330;28;20048;-72
2023/08/08 09:29:21;;;;;;;9.05;0.70;;;19.10;99.90;;;;;;5051811;28;20082;-74
2023/08/08 09:31:48;;;;;;;7.53;0.70;;;19.10;99.90;;;;;;5053044;28;20041;-73
2023/08/08 09:34:13;;;;;;;9.15;0.80;;;19.00;99.90;;;;;;5051502;28;20037;-71
2023/08/08 09:36:40;;;;;;;5.87;0.60;;;19.00;99.90;;;;;;5051769;28;20048;-72
2023/08/08 09:39:07;;;;;;;6.25;0.60;;;18.90;99.90;;;;;;5052973;28;20095;-72
2023/08/08 09:41:32;;;;;;;;;;;18.80;99.90;;;;;;5051828;28;20501;-74
2023/08/08 09:43:59;;;;;;;6.00;0.63;;;18.50;99.90;;;;;;5052388;28;20012;-72
2023/08/08 09:46:25;;;;;;;5.93;0.70;;;18.50;99.90;;;;;;5053548;28;20049;-73
2023/08/08 09:48:52;;;;;;;6.57;0.70;;;18.60;99.90;;;;;;5053264;28;20550;-73
2023/08/08 09:51:17;;;;;;;;;;;18.80;99.90;;;;;;5053342;28;20106;-75
2023/08/08 09:53:46;;;;;;;6.97;0.67;;;19.10;99.90;;;;;;5035355;28;20019;-74
2023/08/08 09:56:13;;;;;;;6.47;0.82;;;19.30;99.90;;;;;;5053154;28;20048;-72
2023/08/08 09:58:41;;;;;;;4.63;0.77;;;19.20;99.90;;;;;;5053597;28;20049;-73
2023/08/08 10:01:06;;;;;;;;;;;19.00;99.90;;;;;;5053751;28;20473;-74
2023/08/08 10:03:33;;;;;;;3.60;0.60;;;18.60;99.90;;;;;;5085188;28;19931;-73
2023/08/08 10:05:59;;;;;;;6.85;0.60;;;18.30;99.90;;;;;;5052773;28;20489;-72
2023/08/08 10:08:24;;;;;;;6.60;0.73;;;17.90;99.90;;;;;;5052977;28;20052;-73
2023/08/08 10:10:50;;;;;;;6.23;0.60;;;17.70;99.90;;;;;;5054370;28;20524;-74
2023/08/08 10:13:24;;;;;;;8.13;0.60;;;17.60;99.90;;;;;;5056283;28;20055;-73
2023/08/08 10:15:51;;;;;;;4.95;0.60;;;17.50;99.90;;;;;;5055264;28;20836;-72
2023/08/08 10:18:17;;;;;;;6.80;0.80;;;17.60;99.90;;;;;;5055454;28;20354;-73
2023/08/08 10:20:47;;;;;;;5.82;0.52;;;17.80;99.90;;;;;;5056880;28;20063;-73
2023/08/08 10:23:15;;;;;;;3.60;0.73;;;18.00;99.90;;;;;;5055008;28;20049;-72
2023/08/08 10:25:46;;;;;;;5.53;0.73;;;18.20;99.90;;;;;;5056141;28;20102;-73
2023/08/08 10:28:14;;;;;;;5.95;0.80;;;18.10;99.90;;;;;;5056590;28;20045;-73
2023/08/08 10:30:45;;;;;;;7.70;1.15;;;18.20;99.90;;;;;;5056482;28;20087;-72
2023/08/08 10:33:18;;;;;;;4.25;0.70;;;18.20;99.90;;;;;;5061433;28;20041;-73
2023/08/08 10:35:51;;;;;;;5.10;0.70;;;18.40;99.90;;;;;;5061354;28;20049;-77
2023/08/08 10:38:17;;;;;;;4.47;0.70;;;18.60;99.90;;;;;;5058147;28;20045;-74
2023/08/08 10:40:43;;;;;;;4.72;0.90;;;18.50;99.90;;;;;;5057952;28;20078;-73
2023/08/08 10:43:13;;;;;;;6.22;0.90;;;18.30;99.90;;;;;;5055444;28;20439;-74
2023/08/08 10:45:42;;;;;;;4.63;0.90;;;17.90;99.90;;;;;;5056311;28;20053;-74
2023/08/08 10:48:09;;;;;;;5.78;0.82;;;18.00;99.90;;;;;;5055570;28;20382;-72
2023/08/08 10:50:41;;;;;;;7.13;0.70;;;18.00;99.90;;;;;;5056032;28;20118;-76
2023/08/08 10:53:12;;;;;;;7.68;1.02;;;18.10;99.90;;;;;;5056574;28;20080;-74
2023/08/08 10:55:38;;;;;;;3.90;0.70;;;18.30;99.90;;;;;;5056473;28;20450;-74
2023/08/08 10:58:15;;;;;;;7.07;0.60;;;18.60;99.90;;;;;;5054638;28;20135;-75
2023/08/08 11:00:41;;;;;;;5.85;0.82;;;18.60;99.90;;;;;;5055589;28;20044;-73
2023/08/08 11:03:08;;;;;;;5.00;0.77;;;18.70;99.90;;;;;;5054786;28;20037;-74
2023/08/08 11:05:35;;;;;;;7.13;1.00;;;18.80;99.90;;;;;;5055612;28;20854;-76
2023/08/08 11:08:03;;;;;;;7.57;1.00;;;19.00;99.90;;;;;;5055411;28;20055;-74
2023/08/08 11:10:32;;;;;;;7.93;0.90;;;19.20;99.90;;;;;;5055173;28;20477;-75
2023/08/08 11:13:03;;;;;;;8.23;0.85;;;19.30;99.90;;;;;;5055246;28;20063;-73
2023/08/08 11:15:31;;;;;;;3.80;0.80;;;18.70;99.90;;;;;;5055824;28;20103;-75
2023/08/08 11:17:58;;;;;;;9.07;1.23;;;18.40;99.90;;;;;;5054927;28;20045;-73
2023/08/08 11:20:24;;;;;;;4.55;0.70;;;18.10;99.90;;;;;;5055185;28;20477;-75
2023/08/08 11:22:54;;;;;;;4.57;0.70;;;17.80;99.90;;;;;;5053350;28;20079;-74
2023/08/08 11:25:21;;;;;;;5.68;0.75;;;17.60;99.90;;;;;;5054989;28;20060;-74
2023/08/08 11:27:51;;;;;;;;;;;17.60;99.90;;;;;;5054050;28;20049;-74
2023/08/08 11:30:17;;;;;;;11.90;1.15;;;17.50;99.90;;;;;;5054781;28;19921;-72
2023/08/08 11:32:43;;;;;;;6.50;0.70;;;17.70;99.90;;;;;;5053745;28;20052;-75
2023/08/08 11:35:09;;;;;;;8.83;0.80;;;17.90;99.90;;;;;;5055034;28;20048;-73
2023/08/08 11:37:37;;;;;;;9.60;1.33;;;18.20;99.90;;;;;;5054570;28;20080;-73
2023/08/08 11:40:05;;;;;;;4.35;0.85;;;18.20;99.90;;;;;;5054898;28;20055;-72
2023/08/08 11:42:31;;;;;;;7.82;0.80;;;18.20;99.90;;;;;;5053466;28;20052;-72
2023/08/08 11:44:58;;;;;;;6.88;1.00;;;17.90;99.90;;;;;;5055093;28;20049;-76
2023/08/08 11:47:31;;;;;;;5.63;0.93;;;17.70;99.90;;;;;;5054172;28;20123;-73
2023/08/08 11:49:57;;;;;;;4.35;0.77;;;17.50;99.90;;;;;;5055073;28;20055;-76
2023/08/08 11:52:24;;;;;;;4.97;1.13;;;17.20;99.90;;;;;;5054719;28;20041;-75
2023/08/08 11:54:52;;;;;;;7.65;0.98;;;17.10;99.90;;;;;;5054494;28;20107;-75
2023/08/08 11:57:18;;;;;;;6.45;1.35;;;17.10;99.90;;;;;;5054692;28;20078;-75
2023/08/08 11:59:44;;;;;;;6.35;1.10;;;17.10;99.90;;;;;;5053884;28;20440;-74
2023/08/08 12:02:10;;;;;;;9.52;1.27;;;17.20;99.90;;;;;;5054169;28;20045;-74
2023/08/08 12:04:36;;;;;;;7.82;1.30;;;17.40;99.90;;;;;;5054376;28;20052;-76
2023/08/08 12:07:05;;;;;;;7.60;1.13;;;17.50;99.90;;;;;;5054345;28;20405;-76
2023/08/08 12:09:32;;;;;;;6.15;1.10;;;17.70;99.90;;;;;;5054870;28;20052;-73
2023/08/08 12:12:01;;;;;;;;;;;18.00;99.90;;;;;;5054470;28;20409;-73
2023/08/08 12:14:27;;;;;;;6.13;1.00;;;18.30;99.90;;;;;;5054022;28;19920;-73
2023/08/08 12:16:54;;;;;;;7.32;1.05;;;18.40;99.90;;;;;;5036938;28;20091;-74
2023/08/08 12:19:23;;;;;;;5.28;1.00;;;18.30;99.90;;;;;;5054655;28;20049;-76
2023/08/08 12:21:49;;;;;;;11.32;1.20;;;18.30;99.90;;;;;;5036066;28;20053;-75
2023/08/08 12:24:14;;;;;;;6.38;1.08;;;18.30;99.90;;;;;;5053892;28;20428;-74
2023/08/08 12:26:40;;;;;;;8.73;1.17;;;18.30;99.90;;;;;;5053381;28;20053;-74
2023/08/08 12:29:06;;;;;;;10.73;1.10;;;18.30;99.90;;;;;;5053922;28;20396;-77
2023/08/08 12:31:31;;;;;;;11.38;1.33;;;18.50;99.90;;;;;;5053816;28;20037;-73
2023/08/08 12:33:57;;;;;;;5.53;0.93;;;18.70;99.90;;;;;;5052966;28;20128;-74
2023/08/08 12:36:23;;;;;;;7.33;0.70;;;19.00;99.90;;;;;;5052957;28;20045;-79
2023/08/08 12:38:49;;;;;;;7.85;0.82;;;19.30;99.90;;;;;;5052652;28;20462;-73
2023/08/08 12:41:15;;;;;;;5.57;0.80;;;19.40;99.90;;;;;;5053412;28;20080;-72